sensor_id;sensor_type;location;lat;lon;timestamp;pressure;altitude;pressure_sealevel;temperature;humidity
57610;BME280;43435;46.186;9.024;2024-02-26T13:30:32;97670.06;;;8.23;72.90
57610;BME280;43435;46.186;9.024;2024-02-26T13:33:07;97665.16;;;8.27;72.90
57610;BME280;43435;46.186;9.024;2024-02-26T13:35:33;97667.63;;;8.29;73.32
57610;BME280;43435;46.186;9.024;2024-02-26T13:38:00;97674.97;;;8.27;73.70
57610;BME280;43435;46.186;9.024;2024-02-26T13:40:26;97674.78;;;8.21;74.09
57610;BME280;43435;46.186;9.024;2024-02-26T13:42:51;97683.56;;;8.22;73.21
57610;BME280;43435;46.186;9.024;2024-02-26T13:45:18;97685.00;;;8.18;74.28
57610;BME280;43435;46.186;9.024;2024-02-26T13:47:43;97680.91;;;8.22;73.44
57610;BME280;43435;46.186;9.024;2024-02-26T13:50:09;97681.31;;;8.19;72.75
57610;BME280;43435;46.186;9.024;2024-02-26T13:52:34;97691.31;;;8.17;72.77
57610;BME280;43435;46.186;9.024;2024-02-26T13:55:00;97695.81;;;8.10;73.30
57610;BME280;43435;46.186;9.024;2024-02-26T13:57:25;97685.00;;;8.11;73.45
57610;BME280;43435;46.186;9.024;2024-02-26T13:59:51;97698.06;;;8.06;73.69
57610;BME280;43435;46.186;9.024;2024-02-26T14:02:17;97705.28;;;7.99;73.87
57610;BME280;43435;46.186;9.024;2024-02-26T14:04:42;97706.91;;;7.93;73.71
57610;BME280;43435;46.186;9.024;2024-02-26T14:07:08;97701.59;;;8.00;73.93
57610;BME280;43435;46.186;9.024;2024-02-26T14:09:33;97696.69;;;7.90;74.25
57610;BME280;43435;46.186;9.024;2024-02-26T14:48:01;97697.91;;;7.55;72.08
57610;BME280;43435;46.186;9.024;2024-02-26T14:50:27;97706.72;;;7.55;72.51
57610;BME280;43435;46.186;9.024;2024-02-26T14:52:52;97715.69;;;7.54;72.51
57610;BME280;43435;46.186;9.024;2024-02-26T14:55:18;97715.69;;;7.54;72.50
57610;BME280;43435;46.186;9.024;2024-02-26T14:57:43;97717.13;;;7.57;72.92
57610;BME280;43435;46.186;9.024;2024-02-26T15:00:09;97719.56;;;7.58;72.23
57610;BME280;43435;46.186;9.024;2024-02-26T15:02:35;97710.78;;;7.51;72.55
57610;BME280;43435;46.186;9.024;2024-02-26T15:05:00;97730.38;;;7.57;72.56
57610;BME280;43435;46.186;9.024;2024-02-26T15:07:25;97730.59;;;7.55;72.44
57610;BME280;43435;46.186;9.024;2024-02-26T15:09:50;97737.13;;;7.59;73.01
57610;BME280;43435;46.186;9.024;2024-02-26T15:12:16;97735.28;;;7.53;73.00
57610;BME280;43435;46.186;9.024;2024-02-26T15:14:42;97743.22;;;7.53;72.99
57610;BME280;43435;46.186;9.024;2024-02-26T15:17:09;97743.66;;;7.57;72.88
57610;BME280;43435;46.186;9.024;2024-02-26T15:19:38;97748.34;;;7.48;73.11
57610;BME280;43435;46.186;9.024;2024-02-26T15:22:04;97761.16;;;7.51;73.06
57610;BME280;43435;46.186;9.024;2024-02-26T15:24:29;97755.47;;;7.54;72.56
57610;BME280;43435;46.186;9.024;2024-02-26T15:26:54;97759.16;;;7.53;72.69
57610;BME280;43435;46.186;9.024;2024-02-26T15:29:20;97766.91;;;7.48;73.10
57610;BME280;43435;46.186;9.024;2024-02-26T15:31:45;97767.31;;;7.52;72.74
57610;BME280;43435;46.186;9.024;2024-02-26T15:34:10;97768.94;;;7.53;73.09
57610;BME280;43435;46.186;9.024;2024-02-26T15:36:35;97771.38;;;7.54;72.55
57610;BME280;43435;46.186;9.024;2024-02-26T15:39:01;97772.81;;;7.57;72.58
57610;BME280;43435;46.186;9.024;2024-02-26T15:41:28;97773.44;;;7.52;72.46
57610;BME280;43435;46.186;9.024;2024-02-26T15:43:53;97783.22;;;7.58;71.82
57610;BME280;43435;46.186;9.024;2024-02-26T15:46:18;97777.72;;;7.53;72.60
57610;BME280;43435;46.186;9.024;2024-02-26T15:48:43;97786.09;;;7.57;72.07
57610;BME280;43435;46.186;9.024;2024-02-26T15:51:18;97793.44;;;7.48;71.54
57610;BME280;43435;46.186;9.024;2024-02-26T15:53:44;97793.84;;;7.45;71.87
57610;BME280;43435;46.186;9.024;2024-02-26T15:56:09;97796.69;;;7.37;72.32
57610;BME280;43435;46.186;9.024;2024-02-26T15:58:35;97799.91;;;7.32;72.08
57610;BME280;43435;46.186;9.024;2024-02-26T16:01:00;97804.00;;;7.35;72.25
57610;BME280;43435;46.186;9.024;2024-02-26T16:03:25;97801.97;;;7.37;72.21
57610;BME280;43435;46.186;9.024;2024-02-26T16:05:50;97794.59;;;7.32;72.21
57610;BME280;43435;46.186;9.024;2024-02-26T16:08:20;97810.09;;;7.29;72.48
57610;BME280;43435;46.186;9.024;2024-02-26T16:10:47;97821.94;;;7.26;71.96
57610;BME280;43435;46.186;9.024;2024-02-26T16:13:13;97811.97;;;7.35;72.25
57610;BME280;43435;46.186;9.024;2024-02-26T16:15:44;97812.94;;;7.20;72.18
57610;BME280;43435;46.186;9.024;2024-02-26T16:18:11;97810.47;;;7.12;72.49
57610;BME280;43435;46.186;9.024;2024-02-26T16:20:36;97816.16;;;7.09;73.40
57610;BME280;43435;46.186;9.024;2024-02-26T16:23:02;97812.31;;;7.12;72.97
57610;BME280;43435;46.186;9.024;2024-02-26T16:25:31;97819.03;;;7.08;72.27
57610;BME280;43435;46.186;9.024;2024-02-26T16:27:56;97826.53;;;7.04;72.42
57610;BME280;43435;46.186;9.024;2024-02-26T16:30:21;97839.00;;;7.10;72.48
57610;BME280;43435;46.186;9.024;2024-02-26T16:32:47;97832.44;;;7.06;72.19
57610;BME280;43435;46.186;9.024;2024-02-26T16:35:13;97840.84;;;7.10;72.05
57610;BME280;43435;46.186;9.024;2024-02-26T16:37:39;97844.50;;;7.09;72.41
57610;BME280;43435;46.186;9.024;2024-02-26T16:40:05;97853.84;;;6.98;72.58
57610;BME280;43435;46.186;9.024;2024-02-26T16:42:31;97846.09;;;6.96;72.77
57610;BME280;43435;46.186;9.024;2024-02-26T16:44:56;97838.81;;;7.12;72.61
57610;BME280;43435;46.186;9.024;2024-02-26T16:47:22;97842.50;;;7.11;72.24
57610;BME280;43435;46.186;9.024;2024-02-26T16:49:47;97848.38;;;7.06;72.35
57610;BME280;43435;46.186;9.024;2024-02-26T16:52:12;97851.25;;;7.11;72.17
57610;BME280;43435;46.186;9.024;2024-02-26T16:54:38;97859.44;;;7.16;72.17
57610;BME280;43435;46.186;9.024;2024-02-26T16:57:04;97858.00;;;7.20;70.76
57610;BME280;43435;46.186;9.024;2024-02-26T16:59:29;97852.03;;;7.05;70.62
57610;BME280;43435;46.186;9.024;2024-02-26T17:01:55;97845.66;;;6.93;70.73
57610;BME280;43435;46.186;9.024;2024-02-26T17:04:24;97839.72;;;6.91;70.71
57610;BME280;43435;46.186;9.024;2024-02-26T17:06:49;97851.56;;;6.95;70.49
57610;BME280;43435;46.186;9.024;2024-02-26T17:09:15;97847.88;;;6.89;70.49
57610;BME280;43435;46.186;9.024;2024-02-26T17:11:40;97851.91;;;6.78;70.27
57610;BME280;43435;46.186;9.024;2024-02-26T17:14:05;97858.75;;;6.66;70.49
57610;BME280;43435;46.186;9.024;2024-02-26T17:16:31;97867.28;;;6.62;70.65
57610;BME280;43435;46.186;9.024;2024-02-26T17:18:57;97873.00;;;6.65;70.23
57610;BME280;43435;46.186;9.024;2024-02-26T17:21:25;97873.16;;;6.57;70.39
57610;BME280;43435;46.186;9.024;2024-02-26T17:23:51;97876.56;;;6.51;70.77
57610;BME280;43435;46.186;9.024;2024-02-26T17:26:20;97865.75;;;6.46;70.77
57610;BME280;43435;46.186;9.024;2024-02-26T17:28:46;97873.94;;;6.51;71.23
57610;BME280;43435;46.186;9.024;2024-02-26T17:31:12;97869.00;;;6.48;71.10
57610;BME280;43435;46.186;9.024;2024-02-26T17:33:38;97874.50;;;6.46;71.02
57610;BME280;43435;46.186;9.024;2024-02-26T17:36:03;97886.31;;;6.44;71.30
57610;BME280;43435;46.186;9.024;2024-02-26T17:38:29;97902.16;;;6.37;71.63
57610;BME280;43435;46.186;9.024;2024-02-26T17:40:54;97906.38;;;6.32;71.59
57610;BME280;43435;46.186;9.024;2024-02-26T17:43:19;97907.47;;;6.16;72.02
57610;BME280;43435;46.186;9.024;2024-02-26T17:45:45;97910.78;;;6.24;72.20
57610;BME280;43435;46.186;9.024;2024-02-26T17:48:11;97906.66;;;6.15;72.33
57610;BME280;43435;46.186;9.024;2024-02-26T17:50:37;97905.88;;;6.21;72.44
57610;BME280;43435;46.186;9.024;2024-02-26T17:53:03;97914.53;;;6.30;72.71
57610;BME280;43435;46.186;9.024;2024-02-26T17:55:28;97913.88;;;6.28;72.65
57610;BME280;43435;46.186;9.024;2024-02-26T17:57:53;97922.41;;;6.23;73.36
57610;BME280;43435;46.186;9.024;2024-02-26T18:00:19;97931.16;;;6.24;73.71
57610;BME280;43435;46.186;9.024;2024-02-26T18:02:44;97931.09;;;6.17;73.46
57610;BME280;43435;46.186;9.024;2024-02-26T18:05:10;97934.88;;;6.29;73.38
57610;BME280;43435;46.186;9.024;2024-02-26T18:07:36;97926.97;;;6.36;73.58
57610;BME280;43435;46.186;9.024;2024-02-26T18:10:01;97926.59;;;6.39;73.43
57610;BME280;43435;46.186;9.024;2024-02-26T18:12:27;97936.63;;;6.44;73.06
57610;BME280;43435;46.186;9.024;2024-02-26T18:14:52;97934.56;;;6.39;72.45
57610;BME280;43435;46.186;9.024;2024-02-26T18:17:17;97933.09;;;6.37;72.25
57610;BME280;43435;46.186;9.024;2024-02-26T18:19:44;97932.19;;;6.23;72.27
57610;BME280;43435;46.186;9.024;2024-02-26T18:22:10;97930.16;;;6.25;72.57
57610;BME280;43435;46.186;9.024;2024-02-26T18:24:36;97930.94;;;6.19;72.59
57610;BME280;43435;46.186;9.024;2024-02-26T18:27:01;97914.59;;;6.15;72.62
57610;BME280;43435;46.186;9.024;2024-02-26T18:29:26;97918.59;;;6.11;72.60
57610;BME280;43435;46.186;9.024;2024-02-26T18:31:51;97917.25;;;6.15;73.00
57610;BME280;43435;46.186;9.024;2024-02-26T18:34:18;97915.72;;;6.06;72.89
57610;BME280;43435;46.186;9.024;2024-02-26T18:36:44;97915.34;;;6.09;73.50
57610;BME280;43435;46.186;9.024;2024-02-26T18:39:09;97915.91;;;6.04;73.57
57610;BME280;43435;46.186;9.024;2024-02-26T18:41:35;97921.00;;;6.06;73.62
57610;BME280;43435;46.186;9.024;2024-02-26T18:44:00;97898.13;;;5.98;73.87
57610;BME280;43435;46.186;9.024;2024-02-26T18:46:26;97907.53;;;6.01;73.76
57610;BME280;43435;46.186;9.024;2024-02-26T18:48:51;97906.44;;;5.95;74.44
57610;BME280;43435;46.186;9.024;2024-02-26T18:51:18;97909.09;;;5.95;74.40
57610;BME280;43435;46.186;9.024;2024-02-26T18:53:44;97924.41;;;6.00;74.31
57610;BME280;43435;46.186;9.024;2024-02-26T18:56:11;97916.97;;;6.10;73.96
57610;BME280;43435;46.186;9.024;2024-02-26T18:58:37;97920.19;;;6.05;74.07
